createdAt,value
2023-05-12T00:00:27.121Z,3.25
2023-05-12T00:02:54.339Z,3.25
2023-05-12T00:05:21.505Z,3.28
2023-05-12T00:07:48.759Z,3.10
2023-05-12T00:10:15.865Z,3.67
2023-05-12T00:12:43.042Z,3.38
2023-05-12T00:15:10.551Z,3.75
2023-05-12T00:17:37.721Z,3.70
2023-05-12T00:20:05.198Z,3.08
2023-05-12T00:22:32.701Z,4.07
2023-05-12T00:24:59.811Z,4.30
2023-05-12T00:27:26.950Z,3.92
2023-05-12T00:29:54.134Z,3.42
2023-05-12T00:32:21.382Z,3.95
2023-05-12T00:34:48.531Z,3.60
2023-05-12T00:37:15.626Z,4.10
2023-05-12T00:39:42.841Z,4.43
2023-05-12T00:42:11.830Z,4.32
2023-05-12T00:44:39.070Z,4.28
2023-05-12T00:47:06.390Z,4.45
2023-05-12T00:49:33.746Z,3.65
2023-05-12T00:52:00.949Z,4.05
2023-05-12T00:54:28.482Z,4.07
2023-05-12T00:56:55.928Z,4.22
2023-05-12T00:59:23.016Z,4.15
2023-05-12T01:01:50.439Z,3.28
2023-05-12T01:04:17.710Z,3.40
2023-05-12T01:06:53.932Z,4.50
2023-05-12T01:09:21.288Z,4.28
2023-05-12T01:11:48.582Z,1.98
2023-05-12T01:14:15.742Z,3.83
2023-05-12T01:16:52.138Z,3.78
2023-05-12T01:19:38.113Z,3.75
2023-05-12T01:22:05.629Z,4.47
2023-05-12T01:24:34.676Z,2.35
2023-05-12T01:27:02.788Z,4.05
2023-05-12T01:29:30.057Z,4.45
2023-05-12T01:31:58.068Z,3.40
2023-05-12T01:34:25.257Z,4.30
2023-05-12T01:36:52.400Z,3.15
2023-05-12T01:39:19.487Z,3.22
2023-05-12T01:41:46.565Z,3.90
2023-05-12T01:44:13.696Z,3.80
2023-05-12T01:46:40.870Z,3.38
2023-05-12T01:49:08.032Z,4.30
2023-05-12T01:51:35.655Z,4.45
2023-05-12T01:54:02.928Z,3.95
2023-05-12T01:56:30.011Z,3.38
2023-05-12T01:58:57.381Z,3.65
2023-05-12T02:01:28.525Z,4.22
2023-05-12T02:03:56.333Z,4.20
2023-05-12T02:06:23.816Z,2.95
2023-05-12T02:08:50.924Z,3.97
2023-05-12T02:11:18.042Z,5.22
2023-05-12T02:13:45.319Z,3.97
2023-05-12T02:16:12.589Z,3.95
2023-05-12T02:18:39.853Z,3.70
2023-05-12T02:21:07.178Z,3.53
2023-05-12T02:23:34.351Z,4.47
2023-05-12T02:26:01.646Z,3.80
2023-05-12T02:28:28.750Z,3.90
2023-05-12T02:30:55.896Z,4.15
2023-05-12T02:33:23.228Z,2.50
2023-05-12T02:35:50.582Z,3.33
2023-05-12T02:38:17.847Z,2.75
2023-05-12T02:40:45.007Z,2.35
2023-05-12T02:43:12.109Z,2.30
2023-05-12T02:45:40.082Z,2.45
2023-05-12T02:48:07.307Z,2.15
2023-05-12T02:50:34.458Z,2.33
2023-05-12T02:53:01.540Z,1.80
2023-05-12T02:55:30.176Z,1.92
2023-05-12T03:00:24.559Z,2.25
2023-05-12T03:02:51.827Z,1.65
2023-05-12T03:05:19.061Z,1.85
2023-05-12T03:07:48.640Z,1.85
2023-05-12T03:10:15.978Z,2.47
2023-05-12T03:12:43.355Z,2.17
2023-05-12T03:15:12.330Z,3.22
2023-05-12T03:17:39.576Z,2.80
2023-05-12T03:20:07.178Z,2.90
2023-05-12T03:22:34.681Z,2.95
2023-05-12T03:25:03.763Z,2.53
2023-05-12T03:27:32.511Z,3.72
2023-05-12T03:32:32.386Z,3.78
2023-05-12T03:34:59.524Z,4.10
2023-05-12T03:37:27.027Z,4.22
2023-05-12T03:39:56.172Z,3.00
2023-05-12T03:42:24.075Z,5.18
2023-05-12T03:44:54.039Z,4.57
2023-05-12T03:47:21.249Z,4.70
2023-05-12T03:49:48.457Z,5.22
2023-05-12T03:52:15.605Z,3.72
2023-05-12T03:54:42.756Z,3.33
2023-05-12T03:57:09.956Z,6.10
2023-05-12T03:59:37.118Z,6.10
2023-05-12T04:02:04.321Z,6.43
2023-05-12T04:04:31.506Z,5.22
2023-05-12T04:07:00.197Z,5.45
2023-05-12T04:09:27.335Z,4.90
2023-05-12T04:11:54.487Z,6.78
2023-05-12T04:14:29.041Z,6.18
2023-05-12T04:17:02.745Z,7.70
2023-05-12T04:19:29.965Z,8.48
2023-05-12T04:21:57.091Z,8.23
2023-05-12T04:24:25.471Z,8.13
2023-05-12T04:26:52.597Z,7.55
2023-05-12T04:29:19.731Z,9.60
2023-05-12T04:31:46.964Z,8.88
2023-05-12T04:34:14.144Z,7.53
2023-05-12T04:36:41.308Z,9.43
2023-05-12T04:39:09.482Z,9.93
2023-05-12T04:41:36.694Z,8.13
2023-05-12T04:44:03.865Z,8.35
2023-05-12T04:46:31.046Z,8.02
2023-05-12T04:48:58.160Z,7.47
2023-05-12T04:51:25.492Z,10.60
2023-05-12T04:53:52.724Z,7.82
2023-05-12T04:56:20.180Z,9.85
2023-05-12T04:58:47.328Z,10.27
2023-05-12T05:01:14.644Z,8.45
2023-05-12T05:03:42.019Z,7.15
2023-05-12T05:06:09.231Z,12.00
2023-05-12T05:08:36.677Z,7.22
2023-05-12T05:11:03.885Z,11.05
2023-05-12T05:13:31.318Z,7.70
2023-05-12T05:15:58.464Z,10.40
2023-05-12T05:18:25.739Z,13.18
2023-05-12T05:23:23.083Z,13.73
2023-05-12T05:25:50.209Z,13.20
2023-05-12T05:28:17.609Z,12.95
2023-05-12T05:30:44.807Z,10.27
2023-05-12T05:33:13.156Z,11.43
2023-05-12T05:35:40.493Z,13.98
2023-05-12T05:38:07.740Z,11.05
2023-05-12T05:40:45.349Z,9.23
2023-05-12T05:43:19.839Z,11.68
2023-05-12T05:45:49.296Z,12.07
2023-05-12T05:48:16.594Z,11.02
2023-05-12T05:50:43.794Z,12.98
2023-05-12T05:53:11.007Z,13.73
2023-05-12T05:55:38.125Z,13.10
2023-05-12T05:58:05.511Z,11.98
2023-05-12T06:00:32.680Z,13.85
2023-05-12T06:02:59.848Z,9.68
2023-05-12T06:05:28.116Z,12.57
2023-05-12T06:07:55.425Z,11.40
2023-05-12T06:10:22.766Z,12.38
2023-05-12T06:12:50.557Z,11.32
2023-05-12T06:15:18.315Z,12.60
2023-05-12T06:17:46.959Z,12.05
2023-05-12T06:20:14.174Z,12.32
2023-05-12T06:22:42.365Z,14.32
2023-05-12T06:25:09.634Z,12.48
2023-05-12T06:27:36.778Z,10.00
2023-05-12T06:30:04.360Z,13.45
2023-05-12T06:32:31.698Z,14.00
2023-05-12T06:34:58.917Z,12.75
2023-05-12T06:37:26.074Z,12.82
2023-05-12T06:39:53.190Z,15.23
2023-05-12T06:42:20.450Z,13.77
2023-05-12T06:44:47.568Z,11.48
2023-05-12T06:47:14.743Z,12.98
2023-05-12T06:49:42.105Z,14.38
2023-05-12T06:52:09.247Z,14.48
2023-05-12T06:54:37.619Z,12.05
2023-05-12T06:57:05.197Z,13.05
2023-05-12T06:59:32.309Z,9.38
2023-05-12T07:01:59.644Z,13.95
2023-05-12T07:04:26.958Z,12.48
2023-05-12T07:06:54.249Z,12.38
2023-05-12T07:09:21.510Z,13.85
2023-05-12T07:11:48.859Z,12.00
2023-05-12T07:14:15.990Z,10.45
2023-05-12T07:16:43.180Z,10.40
2023-05-12T07:19:10.527Z,11.95
2023-05-12T07:21:38.255Z,13.73
2023-05-12T07:24:06.366Z,13.00
2023-05-12T07:26:33.767Z,13.38
2023-05-12T07:29:01.364Z,11.93
2023-05-12T07:31:28.996Z,13.55
2023-05-12T07:33:56.242Z,13.55
2023-05-12T07:36:23.411Z,14.25
2023-05-12T07:38:50.540Z,12.90
2023-05-12T07:41:18.127Z,13.95
2023-05-12T07:43:45.718Z,12.52
2023-05-12T07:46:13.001Z,12.25
2023-05-12T07:48:40.527Z,10.73
2023-05-12T07:51:08.164Z,13.13
2023-05-12T07:53:35.492Z,9.65
2023-05-12T07:56:02.853Z,11.20
2023-05-12T07:58:30.005Z,12.57
2023-05-12T08:01:00.215Z,10.18
2023-05-12T08:03:27.649Z,11.57
2023-05-12T08:05:54.855Z,9.95
2023-05-12T08:08:22.074Z,10.77
2023-05-12T08:10:49.181Z,10.93
2023-05-12T08:13:16.331Z,12.60
2023-05-12T08:15:43.555Z,10.52
2023-05-12T08:18:10.800Z,11.23
2023-05-12T08:20:38.244Z,11.00
2023-05-12T08:23:05.383Z,9.90
2023-05-12T08:25:34.794Z,10.85
2023-05-12T08:28:02.001Z,10.07
2023-05-12T08:30:29.284Z,11.45
2023-05-12T08:32:56.871Z,9.52
2023-05-12T08:35:27.842Z,9.38
2023-05-12T08:37:55.129Z,9.63
2023-05-12T08:40:23.536Z,9.15
2023-05-12T08:43:01.597Z,9.32
2023-05-12T08:45:29.309Z,8.75
2023-05-12T08:47:57.509Z,8.50
2023-05-12T08:50:25.421Z,9.38
2023-05-12T08:52:52.776Z,10.00
2023-05-12T08:55:20.677Z,8.82
2023-05-12T08:57:49.002Z,8.55
2023-05-12T09:00:16.800Z,8.20
2023-05-12T09:02:52.776Z,8.50
2023-05-12T09:05:21.723Z,7.35
2023-05-12T09:07:49.724Z,7.32
2023-05-12T09:10:32.733Z,7.57
2023-05-12T09:13:09.827Z,7.63
2023-05-12T09:15:40.095Z,7.60
2023-05-12T09:18:07.533Z,7.18
2023-05-12T09:20:34.822Z,6.65
2023-05-12T09:23:12.983Z,6.00
2023-05-12T09:25:40.178Z,7.38
2023-05-12T09:28:07.435Z,7.05
2023-05-12T09:30:38.160Z,6.63
2023-05-12T09:33:08.231Z,6.53
2023-05-12T09:35:53.620Z,5.57
2023-05-12T09:38:20.756Z,6.28
2023-05-12T09:40:47.917Z,6.32
2023-05-12T09:43:16.651Z,5.88
2023-05-12T09:45:44.384Z,6.68
2023-05-12T09:48:14.560Z,6.00
2023-05-12T09:50:51.363Z,6.75
2023-05-12T09:53:19.479Z,6.07
2023-05-12T09:55:47.417Z,6.55
2023-05-12T09:58:16.105Z,6.65
2023-05-12T10:01:12.886Z,5.05
2023-05-12T10:03:31.680Z,4.93
2023-05-12T10:05:59.780Z,4.68
2023-05-12T10:08:39.080Z,5.07
2023-05-12T10:11:07.250Z,4.55
2023-05-12T10:13:34.791Z,4.20
2023-05-12T10:16:01.988Z,3.60
2023-05-12T10:18:29.215Z,4.00
2023-05-12T10:20:59.339Z,3.80
2023-05-12T10:23:27.271Z,3.47
2023-05-12T10:25:58.655Z,3.92
2023-05-12T10:28:25.902Z,4.03
2023-05-12T10:30:54.067Z,4.32
2023-05-12T10:35:49.719Z,3.38
2023-05-12T10:38:17.067Z,3.67
2023-05-12T10:40:54.032Z,3.33
2023-05-12T10:43:28.873Z,3.53
2023-05-12T10:46:16.738Z,4.30
2023-05-12T10:49:10.459Z,5.00
2023-05-12T10:51:43.617Z,3.80
2023-05-12T10:54:12.049Z,4.50
2023-05-12T10:56:39.427Z,3.85
2023-05-12T10:59:09.527Z,3.70
2023-05-12T11:01:37.874Z,2.78
2023-05-12T11:04:13.176Z,2.60
2023-05-12T11:06:41.137Z,1.90
2023-05-12T11:09:09.066Z,2.50
2023-05-12T11:11:36.582Z,2.55
2023-05-12T11:14:03.908Z,2.30
2023-05-12T11:16:31.170Z,3.10
2023-05-12T11:19:02.047Z,2.75
2023-05-12T11:21:32.806Z,2.65
2023-05-12T11:24:00.605Z,2.47
2023-05-12T11:26:29.502Z,2.08
2023-05-12T11:29:00.229Z,2.65
2023-05-12T11:31:27.405Z,2.35
2023-05-12T11:34:12.049Z,2.40
2023-05-12T11:36:42.380Z,2.20
2023-05-12T11:39:23.480Z,2.55
2023-05-12T11:41:56.675Z,2.40
2023-05-12T11:44:29.536Z,2.20
2023-05-12T11:46:56.685Z,2.13
2023-05-12T11:49:23.805Z,2.08
2023-05-12T11:52:01.273Z,2.30
2023-05-12T11:54:31.452Z,2.20
2023-05-12T11:56:58.814Z,2.30
2023-05-12T11:59:29.878Z,2.58
2023-05-12T12:01:57.915Z,2.28
2023-05-12T12:04:39.692Z,2.30
2023-05-12T12:07:08.068Z,2.28
2023-05-12T12:09:36.570Z,2.00
2023-05-12T12:12:05.112Z,2.53
2023-05-12T12:14:32.901Z,2.30
2023-05-12T12:17:00.515Z,2.40
2023-05-12T12:19:28.042Z,2.00
2023-05-12T12:21:55.620Z,2.92
2023-05-12T12:24:22.945Z,2.03
2023-05-12T12:26:50.734Z,2.72
2023-05-12T12:29:18.289Z,3.13
2023-05-12T12:31:45.921Z,2.40
2023-05-12T12:34:13.079Z,2.75
2023-05-12T12:36:41.078Z,2.83
2023-05-12T12:39:08.260Z,3.10
2023-05-12T12:41:35.553Z,2.85
2023-05-12T12:44:02.711Z,2.75
2023-05-12T12:46:29.926Z,2.92
2023-05-12T12:48:58.149Z,2.92
2023-05-12T12:51:28.496Z,2.75
2023-05-12T12:54:02.549Z,2.90
2023-05-12T12:56:30.023Z,2.13
2023-05-12T12:58:57.132Z,2.42
2023-05-12T13:01:24.352Z,3.28
2023-05-12T13:03:51.678Z,2.85
2023-05-12T13:06:18.964Z,2.45
2023-05-12T13:08:46.093Z,2.35
2023-05-12T13:11:13.256Z,2.90
2023-05-12T13:13:40.315Z,2.50
2023-05-12T13:16:07.621Z,2.70
2023-05-12T13:18:34.945Z,2.92
2023-05-12T13:21:02.211Z,2.90
2023-05-12T13:23:29.528Z,3.17
2023-05-12T13:25:57.017Z,3.05
2023-05-12T13:28:24.214Z,3.42
2023-05-12T13:30:52.867Z,3.45
2023-05-12T13:33:20.151Z,3.28
2023-05-12T13:35:47.342Z,2.70
2023-05-12T13:38:14.507Z,3.30
2023-05-12T13:40:41.765Z,3.33
2023-05-12T13:43:09.106Z,3.08
2023-05-12T13:45:36.267Z,3.30
2023-05-12T13:48:03.429Z,3.78
2023-05-12T13:50:33.310Z,3.53
2023-05-12T13:53:00.932Z,3.72
2023-05-12T13:55:28.069Z,3.80
2023-05-12T13:57:55.321Z,2.80
2023-05-12T14:00:22.550Z,2.90
2023-05-12T14:02:49.790Z,3.22
2023-05-12T14:05:17.125Z,3.30
2023-05-12T14:07:44.200Z,2.90
2023-05-12T14:10:11.622Z,3.40
2023-05-12T14:12:38.819Z,3.83
2023-05-12T14:15:21.857Z,4.10
2023-05-12T14:17:54.341Z,3.15
2023-05-12T14:20:22.762Z,3.60
2023-05-12T14:22:50.860Z,2.90
2023-05-12T14:27:45.576Z,3.53
2023-05-12T14:30:13.219Z,3.70
2023-05-12T14:32:40.450Z,3.47
2023-05-12T14:35:08.453Z,3.25
2023-05-12T14:37:35.823Z,2.95
2023-05-12T14:40:03.122Z,3.00
2023-05-12T14:42:32.400Z,3.40
2023-05-12T14:44:59.876Z,3.17
2023-05-12T14:47:27.108Z,3.22
2023-05-12T14:49:54.505Z,3.15
2023-05-12T14:52:21.790Z,3.28
2023-05-12T14:54:49.093Z,3.50
2023-05-12T14:57:16.626Z,3.45
2023-05-12T14:59:43.996Z,3.50
2023-05-12T15:02:11.508Z,4.95
2023-05-12T15:04:38.792Z,3.60
2023-05-12T15:07:06.055Z,3.60
2023-05-12T15:09:33.197Z,5.13
2023-05-12T15:12:00.864Z,3.15
2023-05-12T15:14:28.406Z,3.47
2023-05-12T15:16:55.636Z,3.80
2023-05-12T15:19:22.830Z,2.88
2023-05-12T15:21:49.964Z,3.30
2023-05-12T15:24:17.075Z,3.45
2023-05-12T15:26:44.321Z,3.10
2023-05-12T15:29:11.476Z,3.40
2023-05-12T15:31:38.687Z,3.20
2023-05-12T15:34:06.189Z,3.25
2023-05-12T15:36:33.396Z,3.70
2023-05-12T15:39:00.527Z,3.40
2023-05-12T15:41:27.663Z,3.08
2023-05-12T15:43:54.796Z,3.85
2023-05-12T15:46:22.823Z,3.30
2023-05-12T15:48:51.139Z,3.30
2023-05-12T15:51:18.315Z,4.00
2023-05-12T15:53:45.771Z,6.50
2023-05-12T15:56:12.973Z,3.92
2023-05-12T15:58:40.194Z,3.65
2023-05-12T16:01:07.303Z,3.92
2023-05-12T16:03:35.086Z,3.35
2023-05-12T16:06:03.228Z,2.60
2023-05-12T16:13:43.607Z,4.50
2023-05-12T16:16:13.409Z,5.32
2023-05-12T16:18:40.679Z,4.13
2023-05-12T16:21:09.596Z,12.98
2023-05-12T16:23:37.019Z,5.60
2023-05-12T16:26:06.154Z,5.57
2023-05-12T16:28:34.638Z,5.30
2023-05-12T16:31:02.723Z,4.95
2023-05-12T16:33:29.966Z,4.82
2023-05-12T16:35:57.487Z,8.02
2023-05-12T16:38:24.746Z,5.43
2023-05-12T16:40:52.014Z,7.47
2023-05-12T16:43:19.225Z,4.68
2023-05-12T16:45:46.506Z,4.78
2023-05-12T16:48:14.129Z,4.30
2023-05-12T16:50:41.264Z,4.47
2023-05-12T16:53:08.568Z,4.55
2023-05-12T16:55:35.913Z,4.60
2023-05-12T16:58:03.099Z,4.28
2023-05-12T17:00:30.478Z,4.32
2023-05-12T17:02:57.718Z,4.53
2023-05-12T17:05:25.054Z,4.40
2023-05-12T17:07:52.550Z,4.43
2023-05-12T17:10:19.721Z,4.35
2023-05-12T17:12:46.876Z,4.88
2023-05-12T17:15:14.119Z,4.13
2023-05-12T17:17:41.435Z,3.80
2023-05-12T17:20:09.171Z,5.00
2023-05-12T17:22:41.442Z,4.53
2023-05-12T17:25:09.251Z,4.40
2023-05-12T17:27:36.477Z,4.38
2023-05-12T17:30:04.853Z,4.25
2023-05-12T17:34:59.580Z,6.20
2023-05-12T17:37:26.871Z,5.63
2023-05-12T17:39:54.153Z,6.22
2023-05-12T17:42:23.572Z,4.13
2023-05-12T17:44:50.792Z,9.02
2023-05-12T17:47:18.009Z,3.58
2023-05-12T17:49:45.899Z,5.72
2023-05-12T17:52:13.045Z,3.90
2023-05-12T17:54:40.514Z,5.13
2023-05-12T17:57:08.223Z,5.97
2023-05-12T17:59:35.672Z,5.47
2023-05-12T18:02:03.392Z,5.80
2023-05-12T18:04:30.619Z,4.82
2023-05-12T18:06:59.285Z,5.38
2023-05-12T18:09:27.196Z,5.55
2023-05-12T18:11:54.332Z,5.43
2023-05-12T18:14:21.887Z,4.97
2023-05-12T18:16:49.107Z,4.90
2023-05-12T18:19:16.318Z,5.07
2023-05-12T18:21:44.021Z,5.20
2023-05-12T18:24:14.991Z,7.72
2023-05-12T18:26:42.287Z,5.47
2023-05-12T18:29:09.457Z,5.47
2023-05-12T18:31:36.662Z,5.15
2023-05-12T18:34:03.817Z,5.45
2023-05-12T18:36:31.057Z,5.78
2023-05-12T18:38:58.244Z,6.38
2023-05-12T18:41:25.457Z,5.63
2023-05-12T18:43:52.638Z,5.47
2023-05-12T18:46:19.825Z,6.38
2023-05-12T18:48:46.992Z,6.43
2023-05-12T18:51:14.159Z,7.00
2023-05-12T18:53:41.306Z,6.50
2023-05-12T18:56:08.448Z,7.05
2023-05-12T18:58:36.214Z,7.20
2023-05-12T19:01:04.671Z,7.40
2023-05-12T19:03:32.407Z,7.38
2023-05-12T19:05:59.579Z,6.82
2023-05-12T19:08:26.774Z,8.70
2023-05-12T19:10:53.974Z,13.20
2023-05-12T19:13:21.110Z,14.02
2023-05-12T19:15:48.535Z,12.55
2023-05-12T19:18:15.688Z,11.95
2023-05-12T19:20:42.893Z,10.63
2023-05-12T19:23:10.492Z,9.70
2023-05-12T19:25:37.613Z,9.35
2023-05-12T19:28:04.818Z,8.57
2023-05-12T19:30:32.151Z,9.43
2023-05-12T19:32:59.425Z,8.48
2023-05-12T19:35:26.703Z,8.68
2023-05-12T19:37:53.869Z,8.35
2023-05-12T19:40:21.070Z,8.85
2023-05-12T19:42:48.480Z,7.28
2023-05-12T19:45:15.738Z,8.13
2023-05-12T19:47:43.110Z,7.88
2023-05-12T19:50:10.689Z,8.60
2023-05-12T19:52:39.169Z,7.78
2023-05-12T19:57:33.592Z,10.00
2023-05-12T20:00:01.289Z,8.75
2023-05-12T20:02:30.964Z,7.93
2023-05-12T20:05:02.040Z,8.70
2023-05-12T20:07:31.810Z,10.40
2023-05-12T20:10:01.012Z,15.70
2023-05-12T20:12:28.346Z,13.05
2023-05-12T20:14:56.186Z,9.30
2023-05-12T20:17:23.564Z,10.35
2023-05-12T20:19:50.761Z,10.32
2023-05-12T20:22:17.895Z,10.15
2023-05-12T20:24:45.776Z,10.63
2023-05-12T20:27:12.908Z,9.30
2023-05-12T20:29:40.107Z,8.25
2023-05-12T20:32:07.317Z,8.52
2023-05-12T20:34:34.465Z,7.97
2023-05-12T20:37:01.657Z,8.60
2023-05-12T20:39:29.004Z,7.78
2023-05-12T20:41:56.429Z,7.60
2023-05-12T20:44:23.655Z,8.15
2023-05-12T20:46:50.975Z,8.13
2023-05-12T20:49:18.416Z,8.02
2023-05-12T20:51:45.570Z,8.10
2023-05-12T20:54:12.691Z,7.70
2023-05-12T20:56:48.882Z,9.10
2023-05-12T20:59:16.227Z,8.02
2023-05-12T21:01:43.646Z,7.95
2023-05-12T21:04:10.852Z,8.02
2023-05-12T21:06:38.085Z,8.65
2023-05-12T21:09:05.266Z,9.20
2023-05-12T21:11:32.445Z,8.10
2023-05-12T21:13:59.728Z,8.35
2023-05-12T21:16:26.971Z,7.53
2023-05-12T21:18:54.191Z,7.60
2023-05-12T21:21:21.475Z,7.95
2023-05-12T21:23:48.677Z,8.48
2023-05-12T21:26:16.033Z,8.38
2023-05-12T21:28:43.183Z,8.60
2023-05-12T21:31:10.356Z,8.95
2023-05-12T21:33:37.678Z,7.88
2023-05-12T21:36:04.997Z,7.63
2023-05-12T21:38:32.988Z,7.90
2023-05-12T21:41:00.510Z,7.30
2023-05-12T21:43:27.735Z,8.38
2023-05-12T21:45:55.165Z,7.75
2023-05-12T21:48:22.389Z,7.57
2023-05-12T21:50:59.490Z,7.75
2023-05-12T21:53:26.844Z,8.40
2023-05-12T21:55:54.102Z,7.72
2023-05-12T21:58:23.518Z,7.63
2023-05-12T22:00:53.591Z,7.38
2023-05-12T22:03:21.898Z,6.97
2023-05-12T22:05:49.194Z,7.97
2023-05-12T22:08:16.495Z,7.18
2023-05-12T22:10:43.784Z,7.60
2023-05-12T22:13:10.999Z,8.73
2023-05-12T22:15:38.284Z,7.18
2023-05-12T22:18:05.603Z,7.13
2023-05-12T22:20:32.965Z,7.68
2023-05-12T22:23:00.198Z,8.02
2023-05-12T22:25:27.432Z,7.60
2023-05-12T22:27:54.601Z,7.43
2023-05-12T22:30:21.954Z,7.55
2023-05-12T22:32:49.268Z,7.07
2023-05-12T22:35:16.516Z,6.95
2023-05-12T22:37:43.862Z,6.60
2023-05-12T22:40:11.087Z,6.90
2023-05-12T22:42:38.260Z,6.45
2023-05-12T22:45:05.658Z,6.85
2023-05-12T22:47:33.127Z,6.72
2023-05-12T22:50:00.704Z,7.15
2023-05-12T22:52:28.896Z,6.65
2023-05-12T22:54:58.938Z,6.60
2023-05-12T22:57:26.158Z,7.43
2023-05-12T22:59:53.276Z,6.40
2023-05-12T23:02:20.448Z,6.28
2023-05-12T23:04:47.659Z,6.32
2023-05-12T23:07:14.810Z,6.20
2023-05-12T23:09:41.948Z,6.25
2023-05-12T23:12:09.225Z,6.03
2023-05-12T23:14:36.325Z,6.50
2023-05-12T23:17:03.683Z,5.97
2023-05-12T23:19:30.908Z,6.28
2023-05-12T23:21:58.014Z,6.55
2023-05-12T23:24:25.169Z,6.25
2023-05-12T23:26:52.512Z,4.95
2023-05-12T23:29:19.717Z,5.60
2023-05-12T23:31:47.022Z,5.82
2023-05-12T23:34:14.166Z,5.43
2023-05-12T23:36:41.241Z,5.45
2023-05-12T23:39:09.666Z,5.45
2023-05-12T23:41:36.841Z,5.10
2023-05-12T23:44:03.998Z,5.45
2023-05-12T23:46:31.257Z,5.18
2023-05-12T23:48:58.580Z,5.38
2023-05-12T23:51:25.959Z,5.20
2023-05-12T23:53:53.322Z,5.70
2023-05-12T23:56:21.630Z,4.95
2023-05-12T23:58:49.166Z,5.05
